sensor_id;sensor_type;location;lat;lon;timestamp;pressure;altitude;pressure_sealevel;temperature;humidity
10310;BME280;5200;43.236;27.986;2023-05-23T00:02:09;99605.97;;;15.29;100.00
10310;BME280;5200;43.236;27.986;2023-05-23T00:04:38;99605.97;;;15.29;100.00
10310;BME280;5200;43.236;27.986;2023-05-23T00:07:04;99616.34;;;15.38;100.00
10310;BME280;5200;43.236;27.986;2023-05-23T00:09:31;99613.84;;;15.37;100.00
10310;BME280;5200;43.236;27.986;2023-05-23T00:11:58;99601.63;;;15.36;100.00
10310;BME280;5200;43.236;27.986;2023-05-23T00:14:27;99601.63;;;15.36;100.00
10310;BME280;5200;43.236;27.986;2023-05-23T00:16:58;99607.72;;;15.36;100.00
10310;BME280;5200;43.236;27.986;2023-05-23T00:19:25;99599.78;;;15.36;100.00
10310;BME280;5200;43.236;27.986;2023-05-23T00:21:52;99598.97;;;15.36;100.00
10310;BME280;5200;43.236;27.986;2023-05-23T00:24:23;99602.59;;;15.35;100.00
10310;BME280;5200;43.236;27.986;2023-05-23T00:26:50;99609.72;;;15.34;100.00
10310;BME280;5200;43.236;27.986;2023-05-23T00:29:16;99601.63;;;15.36;100.00
10310;BME280;5200;43.236;27.986;2023-05-23T00:31:45;99600.59;;;15.37;100.00
10310;BME280;5200;43.236;27.986;2023-05-23T00:34:12;99599.94;;;15.35;100.00
10310;BME280;5200;43.236;27.986;2023-05-23T00:36:39;99603.25;;;15.37;100.00
10310;BME280;5200;43.236;27.986;2023-05-23T00:39:08;99597.94;;;15.37;100.00
10310;BME280;5200;43.236;27.986;2023-05-23T00:41:41;99603.25;;;15.37;100.00
10310;BME280;5200;43.236;27.986;2023-05-23T00:44:08;99608.19;;;15.40;100.00
10310;BME280;5200;43.236;27.986;2023-05-23T00:46:35;99600.88;;;15.42;100.00
10310;BME280;5200;43.236;27.986;2023-05-23T00:49:03;99575.44;;;15.33;100.00
10310;BME280;5200;43.236;27.986;2023-05-23T00:51:30;99595.25;;;15.45;100.00
10310;BME280;5200;43.236;27.986;2023-05-23T00:53:57;99580.16;;;15.46;100.00
10310;BME280;5200;43.236;27.986;2023-05-23T00:56:27;99590.22;;;15.50;100.00
10310;BME280;5200;43.236;27.986;2023-05-23T00:58:54;99583.44;;;15.48;100.00
10310;BME280;5200;43.236;27.986;2023-05-23T01:01:21;99589.69;;;15.55;100.00
10310;BME280;5200;43.236;27.986;2023-05-23T01:03:48;99584.38;;;15.55;100.00
10310;BME280;5200;43.236;27.986;2023-05-23T01:06:17;99580.88;;;15.54;100.00
10310;BME280;5200;43.236;27.986;2023-05-23T01:08:44;99589.47;;;15.56;100.00
10310;BME280;5200;43.236;27.986;2023-05-23T01:11:15;99575.28;;;15.49;100.00
10310;BME280;5200;43.236;27.986;2023-05-23T01:13:58;99584.66;;;15.60;100.00
10310;BME280;5200;43.236;27.986;2023-05-23T01:16:35;99574.22;;;15.58;100.00
10310;BME280;5200;43.236;27.986;2023-05-23T01:19:17;99575.03;;;15.59;100.00
10310;BME280;5200;43.236;27.986;2023-05-23T01:22:00;99577.50;;;15.60;100.00
10310;BME280;5200;43.236;27.986;2023-05-23T01:24:34;99576.69;;;15.60;100.00
10310;BME280;5200;43.236;27.986;2023-05-23T01:27:09;99573.84;;;15.61;100.00
10310;BME280;5200;43.236;27.986;2023-05-23T01:29:46;99578.16;;;15.62;100.00
10310;BME280;5200;43.236;27.986;2023-05-23T01:32:18;99578.34;;;15.61;100.00
10310;BME280;5200;43.236;27.986;2023-05-23T01:34:48;99574.81;;;15.69;100.00
10310;BME280;5200;43.236;27.986;2023-05-23T01:37:18;99569.16;;;15.72;100.00
10310;BME280;5200;43.236;27.986;2023-05-23T01:39:45;99564.72;;;15.64;100.00
10310;BME280;5200;43.236;27.986;2023-05-23T01:42:12;99572.63;;;15.72;100.00
10310;BME280;5200;43.236;27.986;2023-05-23T01:44:40;99590.53;;;15.70;100.00
10310;BME280;5200;43.236;27.986;2023-05-23T01:47:09;99575.78;;;15.68;100.00
10310;BME280;5200;43.236;27.986;2023-05-23T01:49:36;99571.69;;;15.65;100.00
10310;BME280;5200;43.236;27.986;2023-05-23T01:52:04;99569.41;;;15.62;100.00
10310;BME280;5200;43.236;27.986;2023-05-23T01:54:35;99573.50;;;15.64;100.00
10310;BME280;5200;43.236;27.986;2023-05-23T01:57:03;99567.56;;;15.62;100.00
10310;BME280;5200;43.236;27.986;2023-05-23T01:59:31;99559.78;;;15.61;100.00
10310;BME280;5200;43.236;27.986;2023-05-23T02:01:58;99562.78;;;15.58;100.00
10310;BME280;5200;43.236;27.986;2023-05-23T02:04:28;99579.06;;;15.55;100.00
10310;BME280;5200;43.236;27.986;2023-05-23T02:06:56;99568.34;;;15.48;100.00
10310;BME280;5200;43.236;27.986;2023-05-23T02:09:22;99570.00;;;15.49;100.00
10310;BME280;5200;43.236;27.986;2023-05-23T02:11:49;99564.69;;;15.49;100.00
10310;BME280;5200;43.236;27.986;2023-05-23T02:14:16;99564.69;;;15.49;100.00
10310;BME280;5200;43.236;27.986;2023-05-23T02:16:44;99556.47;;;15.44;100.00
10310;BME280;5200;43.236;27.986;2023-05-23T02:19:10;99548.06;;;15.40;100.00
10310;BME280;5200;43.236;27.986;2023-05-23T02:21:39;99565.88;;;15.47;100.00
10310;BME280;5200;43.236;27.986;2023-05-23T02:24:05;99569.06;;;15.42;100.00
10310;BME280;5200;43.236;27.986;2023-05-23T02:26:32;99571.91;;;15.40;100.00
10310;BME280;5200;43.236;27.986;2023-05-23T02:28:59;99561.66;;;15.37;100.00
10310;BME280;5200;43.236;27.986;2023-05-23T02:31:26;99575.09;;;15.36;100.00
10310;BME280;5200;43.236;27.986;2023-05-23T02:33:53;99567.69;;;15.31;100.00
10310;BME280;5200;43.236;27.986;2023-05-23T02:36:20;99571.81;;;15.34;100.00
10310;BME280;5200;43.236;27.986;2023-05-23T02:38:48;99561.09;;;15.27;100.00
10310;BME280;5200;43.236;27.986;2023-05-23T02:41:15;99575.91;;;15.36;100.00
10310;BME280;5200;43.236;27.986;2023-05-23T02:43:44;99564.03;;;15.32;100.00
10310;BME280;5200;43.236;27.986;2023-05-23T02:46:11;99573.06;;;15.38;100.00
10310;BME280;5200;43.236;27.986;2023-05-23T02:48:38;99580.41;;;15.36;100.00
10310;BME280;5200;43.236;27.986;2023-05-23T02:51:05;99578.38;;;15.38;100.00
10310;BME280;5200;43.236;27.986;2023-05-23T02:53:31;99577.03;;;15.42;100.00
10310;BME280;5200;43.236;27.986;2023-05-23T02:55:59;99584.00;;;15.43;100.00
10310;BME280;5200;43.236;27.986;2023-05-23T02:58:26;99577.66;;;15.44;100.00
10310;BME280;5200;43.236;27.986;2023-05-23T03:00:54;99583.63;;;15.46;100.00
10310;BME280;5200;43.236;27.986;2023-05-23T03:03:20;99577.59;;;15.52;100.00
10310;BME280;5200;43.236;27.986;2023-05-23T03:05:47;99584.53;;;15.53;100.00
10310;BME280;5200;43.236;27.986;2023-05-23T03:08:14;99575.28;;;15.49;100.00
10310;BME280;5200;43.236;27.986;2023-05-23T03:10:41;99560.56;;;15.47;100.00
10310;BME280;5200;43.236;27.986;2023-05-23T03:13:09;99575.66;;;15.46;100.00
10310;BME280;5200;43.236;27.986;2023-05-23T03:15:36;99575.25;;;15.57;100.00
10310;BME280;5200;43.236;27.986;2023-05-23T03:18:03;99577.88;;;15.57;100.00
10310;BME280;5200;43.236;27.986;2023-05-23T03:20:30;99586.50;;;15.59;100.00
10310;BME280;5200;43.236;27.986;2023-05-23T03:22:56;99589.75;;;15.61;100.00
10310;BME280;5200;43.236;27.986;2023-05-23T03:25:23;99581.81;;;15.61;100.00
10310;BME280;5200;43.236;27.986;2023-05-23T03:27:50;99590.06;;;15.67;100.00
10310;BME280;5200;43.236;27.986;2023-05-23T03:30:19;99604.28;;;15.74;100.00
10310;BME280;5200;43.236;27.986;2023-05-23T03:32:46;99573.44;;;15.73;100.00
10310;BME280;5200;43.236;27.986;2023-05-23T03:35:14;99596.81;;;15.92;100.00
10310;BME280;5200;43.236;27.986;2023-05-23T03:37:41;99594.75;;;15.94;100.00
10310;BME280;5200;43.236;27.986;2023-05-23T03:40:08;99581.44;;;15.88;100.00
10310;BME280;5200;43.236;27.986;2023-05-23T03:42:35;99579.97;;;15.85;100.00
10310;BME280;5200;43.236;27.986;2023-05-23T03:45:03;99600.72;;;15.96;100.00
10310;BME280;5200;43.236;27.986;2023-05-23T03:47:31;99607.03;;;15.95;100.00
10310;BME280;5200;43.236;27.986;2023-05-23T03:49:58;99592.22;;;15.86;100.00
10310;BME280;5200;43.236;27.986;2023-05-23T03:52:25;99599.72;;;15.97;100.00
10310;BME280;5200;43.236;27.986;2023-05-23T03:54:52;99588.91;;;15.84;100.00
10310;BME280;5200;43.236;27.986;2023-05-23T03:57:19;99610.34;;;15.97;100.00
10310;BME280;5200;43.236;27.986;2023-05-23T03:59:47;99619.56;;;15.87;100.00
10310;BME280;5200;43.236;27.986;2023-05-23T04:02:14;99611.69;;;15.93;100.00
10310;BME280;5200;43.236;27.986;2023-05-23T04:04:42;99629.91;;;15.96;100.00
10310;BME280;5200;43.236;27.986;2023-05-23T04:07:09;99579.41;;;15.75;100.00
10310;BME280;5200;43.236;27.986;2023-05-23T04:09:36;99612.19;;;15.97;100.00
10310;BME280;5200;43.236;27.986;2023-05-23T04:12:03;99626.59;;;15.94;100.00
10310;BME280;5200;43.236;27.986;2023-05-23T04:14:30;99620.13;;;15.97;100.00
10310;BME280;5200;43.236;27.986;2023-05-23T04:16:57;99601.81;;;15.87;100.00
10310;BME280;5200;43.236;27.986;2023-05-23T04:19:25;99628.28;;;15.95;100.00
10310;BME280;5200;43.236;27.986;2023-05-23T04:21:53;99628.53;;;15.85;100.00
10310;BME280;5200;43.236;27.986;2023-05-23T04:24:20;99603.47;;;15.73;100.00
10310;BME280;5200;43.236;27.986;2023-05-23T04:26:47;99622.47;;;15.77;100.00
10310;BME280;5200;43.236;27.986;2023-05-23T04:29:14;99626.88;;;15.84;100.00
10310;BME280;5200;43.236;27.986;2023-05-23T04:31:40;99627.72;;;15.85;100.00
10310;BME280;5200;43.236;27.986;2023-05-23T04:34:10;99624.03;;;15.86;100.00
10310;BME280;5200;43.236;27.986;2023-05-23T04:36:37;99613.06;;;15.74;100.00
10310;BME280;5200;43.236;27.986;2023-05-23T04:39:06;99637.59;;;15.91;100.00
10310;BME280;5200;43.236;27.986;2023-05-23T04:41:32;99632.66;;;15.88;100.00
10310;BME280;5200;43.236;27.986;2023-05-23T04:44:00;99630.91;;;15.95;100.00
10310;BME280;5200;43.236;27.986;2023-05-23T04:46:27;99653.34;;;16.08;100.00
10310;BME280;5200;43.236;27.986;2023-05-23T04:48:54;99639.69;;;16.11;100.00
10310;BME280;5200;43.236;27.986;2023-05-23T04:51:21;99632.59;;;16.11;100.00
10310;BME280;5200;43.236;27.986;2023-05-23T04:53:48;99640.91;;;16.23;100.00
10310;BME280;5200;43.236;27.986;2023-05-23T04:56:17;99648.13;;;16.29;100.00
10310;BME280;5200;43.236;27.986;2023-05-23T04:58:45;99636.97;;;16.19;100.00
10310;BME280;5200;43.236;27.986;2023-05-23T05:01:12;99655.66;;;16.25;100.00
10310;BME280;5200;43.236;27.986;2023-05-23T05:03:40;99656.63;;;16.24;100.00
10310;BME280;5200;43.236;27.986;2023-05-23T05:06:07;99661.13;;;16.24;100.00
10310;BME280;5200;43.236;27.986;2023-05-23T05:08:33;99665.72;;;16.30;100.00
10310;BME280;5200;43.236;27.986;2023-05-23T05:11:00;99669.28;;;16.37;100.00
10310;BME280;5200;43.236;27.986;2023-05-23T05:13:28;99660.66;;;16.50;100.00
10310;BME280;5200;43.236;27.986;2023-05-23T05:15:55;99666.06;;;16.57;100.00
10310;BME280;5200;43.236;27.986;2023-05-23T05:18:23;99665.34;;;16.63;100.00
10310;BME280;5200;43.236;27.986;2023-05-23T05:20:51;99662.94;;;16.68;100.00
10310;BME280;5200;43.236;27.986;2023-05-23T05:23:18;99658.16;;;16.78;100.00
10310;BME280;5200;43.236;27.986;2023-05-23T05:25:45;99657.88;;;17.03;100.00
10310;BME280;5200;43.236;27.986;2023-05-23T05:28:12;99668.31;;;17.26;100.00
10310;BME280;5200;43.236;27.986;2023-05-23T05:30:40;99673.38;;;17.42;100.00
10310;BME280;5200;43.236;27.986;2023-05-23T05:33:07;99670.28;;;17.60;100.00
10310;BME280;5200;43.236;27.986;2023-05-23T05:35:34;99664.63;;;17.70;100.00
10310;BME280;5200;43.236;27.986;2023-05-23T05:38:02;99670.56;;;17.93;100.00
10310;BME280;5200;43.236;27.986;2023-05-23T05:40:30;99672.59;;;18.20;100.00
10310;BME280;5200;43.236;27.986;2023-05-23T05:42:57;99672.28;;;18.36;100.00
10310;BME280;5200;43.236;27.986;2023-05-23T05:45:24;99670.06;;;18.40;100.00
10310;BME280;5200;43.236;27.986;2023-05-23T05:47:52;99667.22;;;18.48;100.00
10310;BME280;5200;43.236;27.986;2023-05-23T05:50:21;99679.72;;;18.47;100.00
10310;BME280;5200;43.236;27.986;2023-05-23T05:52:47;99674.38;;;18.47;100.00
10310;BME280;5200;43.236;27.986;2023-05-23T05:55:14;99677.91;;;18.54;100.00
10310;BME280;5200;43.236;27.986;2023-05-23T05:57:41;99663.97;;;18.52;100.00
10310;BME280;5200;43.236;27.986;2023-05-23T06:00:10;99671.84;;;18.67;100.00
10310;BME280;5200;43.236;27.986;2023-05-23T06:02:38;99656.88;;;18.73;100.00
10310;BME280;5200;43.236;27.986;2023-05-23T06:05:08;99667.88;;;18.56;100.00
10310;BME280;5200;43.236;27.986;2023-05-23T06:07:36;99673.72;;;18.38;100.00
10310;BME280;5200;43.236;27.986;2023-05-23T06:10:04;99671.28;;;18.37;100.00
10310;BME280;5200;43.236;27.986;2023-05-23T06:12:31;99675.31;;;18.68;100.00
10310;BME280;5200;43.236;27.986;2023-05-23T06:14:58;99688.69;;;18.81;100.00
10310;BME280;5200;43.236;27.986;2023-05-23T06:17:25;99674.78;;;18.79;100.00
10310;BME280;5200;43.236;27.986;2023-05-23T06:19:52;99669.47;;;18.92;100.00
10310;BME280;5200;43.236;27.986;2023-05-23T06:22:20;99650.16;;;18.84;100.00
10310;BME280;5200;43.236;27.986;2023-05-23T06:24:47;99676.94;;;19.10;100.00
10310;BME280;5200;43.236;27.986;2023-05-23T06:27:14;99682.69;;;19.27;100.00
10310;BME280;5200;43.236;27.986;2023-05-23T06:29:41;99668.69;;;19.12;100.00
10310;BME280;5200;43.236;27.986;2023-05-23T06:32:08;99685.56;;;19.12;100.00
10310;BME280;5200;43.236;27.986;2023-05-23T06:34:34;99688.00;;;19.20;100.00
10310;BME280;5200;43.236;27.986;2023-05-23T06:37:01;99685.53;;;19.06;100.00
10310;BME280;5200;43.236;27.986;2023-05-23T06:39:29;99683.38;;;18.81;100.00
10310;BME280;5200;43.236;27.986;2023-05-23T06:41:56;99683.69;;;18.65;100.00
10310;BME280;5200;43.236;27.986;2023-05-23T06:44:23;99685.81;;;18.41;100.00
10310;BME280;5200;43.236;27.986;2023-05-23T06:46:50;99677.66;;;18.14;100.00
10310;BME280;5200;43.236;27.986;2023-05-23T06:49:21;99682.91;;;18.01;100.00
10310;BME280;5200;43.236;27.986;2023-05-23T06:51:48;99684.97;;;17.99;100.00
10310;BME280;5200;43.236;27.986;2023-05-23T06:54:15;99680.41;;;17.93;100.00
10310;BME280;5200;43.236;27.986;2023-05-23T06:56:43;99677.34;;;17.96;100.00
10310;BME280;5200;43.236;27.986;2023-05-23T06:59:10;99670.91;;;17.84;100.00
10310;BME280;5200;43.236;27.986;2023-05-23T07:01:37;99681.41;;;17.70;100.00
10310;BME280;5200;43.236;27.986;2023-05-23T07:04:04;99655.06;;;17.54;100.00
10310;BME280;5200;43.236;27.986;2023-05-23T07:06:31;99670.50;;;17.65;100.00
10310;BME280;5200;43.236;27.986;2023-05-23T07:09:00;99653.44;;;17.53;100.00
10310;BME280;5200;43.236;27.986;2023-05-23T07:11:26;99688.25;;;17.58;100.00
10310;BME280;5200;43.236;27.986;2023-05-23T07:13:55;99659.44;;;17.40;100.00
10310;BME280;5200;43.236;27.986;2023-05-23T07:16:22;99660.06;;;17.42;100.00
10310;BME280;5200;43.236;27.986;2023-05-23T07:18:48;99677.94;;;17.48;100.00
10310;BME280;5200;43.236;27.986;2023-05-23T07:21:15;99678.72;;;17.64;100.00
10310;BME280;5200;43.236;27.986;2023-05-23T07:23:42;99668.72;;;17.72;100.00
10310;BME280;5200;43.236;27.986;2023-05-23T07:26:09;99677.09;;;17.91;100.00
10310;BME280;5200;43.236;27.986;2023-05-23T07:28:36;99674.59;;;17.83;100.00
10310;BME280;5200;43.236;27.986;2023-05-23T07:31:04;99671.16;;;17.67;100.00
10310;BME280;5200;43.236;27.986;2023-05-23T07:33:33;99677.03;;;17.63;100.00
10310;BME280;5200;43.236;27.986;2023-05-23T07:36:00;99672.47;;;17.78;100.00
10310;BME280;5200;43.236;27.986;2023-05-23T07:38:27;99663.91;;;18.04;100.00
10310;BME280;5200;43.236;27.986;2023-05-23T07:40:53;99668.38;;;18.38;100.00
10310;BME280;5200;43.236;27.986;2023-05-23T07:43:20;99669.16;;;18.67;100.00
10310;BME280;5200;43.236;27.986;2023-05-23T07:45:47;99665.81;;;19.07;100.00
10310;BME280;5200;43.236;27.986;2023-05-23T07:48:16;99647.22;;;19.47;100.00
10310;BME280;5200;43.236;27.986;2023-05-23T07:50:43;99649.91;;;20.00;100.00
10310;BME280;5200;43.236;27.986;2023-05-23T07:53:10;99670.38;;;20.39;100.00
10310;BME280;5200;43.236;27.986;2023-05-23T07:55:37;99672.41;;;20.57;100.00
10310;BME280;5200;43.236;27.986;2023-05-23T07:58:03;99647.34;;;20.45;100.00
10310;BME280;5200;43.236;27.986;2023-05-23T08:00:31;99673.44;;;20.49;100.00
10310;BME280;5200;43.236;27.986;2023-05-23T08:02:58;99671.63;;;20.37;100.00
10310;BME280;5200;43.236;27.986;2023-05-23T08:05:26;99652.34;;;20.15;100.00
10310;BME280;5200;43.236;27.986;2023-05-23T08:07:53;99672.00;;;20.40;100.00
10310;BME280;5200;43.236;27.986;2023-05-23T08:10:20;99668.91;;;20.57;100.00
10310;BME280;5200;43.236;27.986;2023-05-23T08:12:47;99645.66;;;20.57;100.00
10310;BME280;5200;43.236;27.986;2023-05-23T08:15:14;99676.25;;;20.75;99.44
10310;BME280;5200;43.236;27.986;2023-05-23T08:17:41;99669.69;;;20.71;100.00
10310;BME280;5200;43.236;27.986;2023-05-23T08:20:09;99668.59;;;20.85;100.00
10310;BME280;5200;43.236;27.986;2023-05-23T08:22:38;99664.97;;;21.04;100.00
10310;BME280;5200;43.236;27.986;2023-05-23T08:25:05;99674.00;;;21.17;98.63
10310;BME280;5200;43.236;27.986;2023-05-23T08:27:32;99662.41;;;20.91;99.17
10310;BME280;5200;43.236;27.986;2023-05-23T08:30:00;99662.41;;;20.91;100.00
10310;BME280;5200;43.236;27.986;2023-05-23T08:32:27;99665.00;;;21.36;98.90
10310;BME280;5200;43.236;27.986;2023-05-23T08:34:54;99661.53;;;22.11;95.74
10310;BME280;5200;43.236;27.986;2023-05-23T08:37:20;99650.38;;;22.69;81.47
10310;BME280;5200;43.236;27.986;2023-05-23T08:39:49;99650.03;;;22.66;77.94
10310;BME280;5200;43.236;27.986;2023-05-23T08:42:16;99647.00;;;22.25;79.64
10310;BME280;5200;43.236;27.986;2023-05-23T08:44:43;99658.50;;;21.82;78.74
10310;BME280;5200;43.236;27.986;2023-05-23T08:47:11;99648.19;;;21.29;81.81
10310;BME280;5200;43.236;27.986;2023-05-23T08:49:42;99662.88;;;20.75;86.52
10310;BME280;5200;43.236;27.986;2023-05-23T08:52:11;99662.09;;;20.67;94.18
10310;BME280;5200;43.236;27.986;2023-05-23T08:54:40;99662.31;;;20.59;99.36
10310;BME280;5200;43.236;27.986;2023-05-23T08:57:09;99655.56;;;20.43;100.00
10310;BME280;5200;43.236;27.986;2023-05-23T08:59:37;99665.50;;;20.16;100.00
10310;BME280;5200;43.236;27.986;2023-05-23T09:02:07;99671.69;;;19.83;100.00
10310;BME280;5200;43.236;27.986;2023-05-23T09:04:36;99665.09;;;19.66;100.00
10310;BME280;5200;43.236;27.986;2023-05-23T09:07:03;99668.81;;;19.92;100.00
10310;BME280;5200;43.236;27.986;2023-05-23T09:09:31;99661.84;;;19.91;100.00
10310;BME280;5200;43.236;27.986;2023-05-23T09:11:57;99663.88;;;19.89;100.00
10310;BME280;5200;43.236;27.986;2023-05-23T09:14:26;99662.22;;;20.01;100.00
10310;BME280;5200;43.236;27.986;2023-05-23T09:16:59;99662.81;;;20.16;100.00
10310;BME280;5200;43.236;27.986;2023-05-23T09:19:27;99656.75;;;20.54;100.00
10310;BME280;5200;43.236;27.986;2023-05-23T09:21:54;99657.72;;;21.18;100.00
10310;BME280;5200;43.236;27.986;2023-05-23T09:24:21;99648.16;;;21.61;93.13
10310;BME280;5200;43.236;27.986;2023-05-23T09:26:48;99655.00;;;21.25;95.53
10310;BME280;5200;43.236;27.986;2023-05-23T09:29:18;99655.53;;;20.57;100.00
10310;BME280;5200;43.236;27.986;2023-05-23T09:31:47;99658.69;;;20.27;100.00
10310;BME280;5200;43.236;27.986;2023-05-23T09:34:14;99654.44;;;20.06;100.00
10310;BME280;5200;43.236;27.986;2023-05-23T09:36:41;99654.44;;;19.73;100.00
10310;BME280;5200;43.236;27.986;2023-05-23T09:39:11;99670.06;;;19.69;100.00
10310;BME280;5200;43.236;27.986;2023-05-23T09:41:38;99675.34;;;19.56;100.00
10310;BME280;5200;43.236;27.986;2023-05-23T09:44:07;99676.56;;;19.33;100.00
10310;BME280;5200;43.236;27.986;2023-05-23T09:46:34;99678.72;;;18.96;100.00
10310;BME280;5200;43.236;27.986;2023-05-23T09:49:14;99688.28;;;18.77;100.00
10310;BME280;5200;43.236;27.986;2023-05-23T09:51:41;99691.22;;;18.20;100.00
10310;BME280;5200;43.236;27.986;2023-05-23T09:54:08;99694.34;;;17.73;100.00
10310;BME280;5200;43.236;27.986;2023-05-23T09:56:39;99697.31;;;17.42;100.00
10310;BME280;5200;43.236;27.986;2023-05-23T09:59:09;99706.63;;;17.31;100.00
10310;BME280;5200;43.236;27.986;2023-05-23T10:01:39;99702.03;;;17.25;100.00
10310;BME280;5200;43.236;27.986;2023-05-23T10:04:08;99705.06;;;17.01;100.00
10310;BME280;5200;43.236;27.986;2023-05-23T10:06:40;99714.06;;;16.85;100.00
10310;BME280;5200;43.236;27.986;2023-05-23T10:09:12;99719.38;;;16.70;100.00
10310;BME280;5200;43.236;27.986;2023-05-23T10:14:56;99706.47;;;16.37;100.00
10310;BME280;5200;43.236;27.986;2023-05-23T10:17:31;99711.56;;;16.39;100.00
10310;BME280;5200;43.236;27.986;2023-05-23T10:20:09;99709.56;;;16.56;100.00
10310;BME280;5200;43.236;27.986;2023-05-23T10:22:37;99718.25;;;16.64;100.00
10310;BME280;5200;43.236;27.986;2023-05-23T10:25:05;99716.69;;;16.40;100.00
10310;BME280;5200;43.236;27.986;2023-05-23T10:27:32;99716.31;;;16.43;100.00
10310;BME280;5200;43.236;27.986;2023-05-23T10:29:59;99720.00;;;16.42;100.00
10310;BME280;5200;43.236;27.986;2023-05-23T10:32:27;99715.13;;;16.46;100.00
10310;BME280;5200;43.236;27.986;2023-05-23T10:34:58;99705.00;;;16.49;100.00
10310;BME280;5200;43.236;27.986;2023-05-23T10:37:39;99710.84;;;16.60;100.00
10310;BME280;5200;43.236;27.986;2023-05-23T10:40:17;99719.94;;;16.80;100.00
10310;BME280;5200;43.236;27.986;2023-05-23T10:42:51;99719.91;;;16.65;100.00
10310;BME280;5200;43.236;27.986;2023-05-23T10:45:20;99727.78;;;16.59;100.00
10310;BME280;5200;43.236;27.986;2023-05-23T10:47:50;99713.34;;;16.46;100.00
10310;BME280;5200;43.236;27.986;2023-05-23T10:50:30;99721.47;;;16.60;100.00
10310;BME280;5200;43.236;27.986;2023-05-23T10:53:00;99723.38;;;16.66;100.00
10310;BME280;5200;43.236;27.986;2023-05-23T10:55:31;99726.88;;;16.81;100.00
10310;BME280;5200;43.236;27.986;2023-05-23T10:58:13;99725.59;;;16.92;100.00
10310;BME280;5200;43.236;27.986;2023-05-23T11:00:50;99735.47;;;17.13;100.00
10310;BME280;5200;43.236;27.986;2023-05-23T11:03:17;99737.66;;;17.46;100.00
10310;BME280;5200;43.236;27.986;2023-05-23T11:05:46;99727.28;;;17.94;100.00
10310;BME280;5200;43.236;27.986;2023-05-23T11:08:19;99724.88;;;18.27;100.00
10310;BME280;5200;43.236;27.986;2023-05-23T11:10:58;99725.00;;;18.82;100.00
10310;BME280;5200;43.236;27.986;2023-05-23T11:13:25;99727.03;;;19.35;100.00
10310;BME280;5200;43.236;27.986;2023-05-23T11:16:30;99722.56;;;19.62;100.00
10310;BME280;5200;43.236;27.986;2023-05-23T11:19:24;99722.47;;;19.15;100.00
10310;BME280;5200;43.236;27.986;2023-05-23T11:21:54;99719.22;;;19.27;100.00
10310;BME280;5200;43.236;27.986;2023-05-23T11:24:47;99713.94;;;19.53;100.00
10310;BME280;5200;43.236;27.986;2023-05-23T11:27:14;99725.69;;;19.79;100.00
10310;BME280;5200;43.236;27.986;2023-05-23T11:29:45;99716.44;;;20.21;100.00
10310;BME280;5200;43.236;27.986;2023-05-23T11:32:22;99712.72;;;20.22;100.00
10310;BME280;5200;43.236;27.986;2023-05-23T11:34:49;99706.59;;;20.02;100.00
10310;BME280;5200;43.236;27.986;2023-05-23T11:37:16;99716.81;;;19.65;100.00
10310;BME280;5200;43.236;27.986;2023-05-23T11:39:45;99710.72;;;19.71;100.00
10310;BME280;5200;43.236;27.986;2023-05-23T11:42:12;99710.31;;;19.88;100.00
10310;BME280;5200;43.236;27.986;2023-05-23T11:44:39;99703.47;;;20.32;100.00
10310;BME280;5200;43.236;27.986;2023-05-23T11:47:05;99704.41;;;20.84;100.00
10310;BME280;5200;43.236;27.986;2023-05-23T11:49:34;99702.22;;;20.61;100.00
10310;BME280;5200;43.236;27.986;2023-05-23T11:52:02;99699.38;;;20.29;100.00
10310;BME280;5200;43.236;27.986;2023-05-23T11:54:30;99706.56;;;19.55;100.00
10310;BME280;5200;43.236;27.986;2023-05-23T11:56:59;99710.88;;;18.88;100.00
10310;BME280;5200;43.236;27.986;2023-05-23T11:59:27;99696.41;;;18.63;100.00
10310;BME280;5200;43.236;27.986;2023-05-23T12:01:54;99705.06;;;18.08;100.00
10310;BME280;5200;43.236;27.986;2023-05-23T12:04:21;99701.44;;;17.66;100.00
10310;BME280;5200;43.236;27.986;2023-05-23T12:06:50;99704.97;;;17.73;100.00
10310;BME280;5200;43.236;27.986;2023-05-23T12:09:17;99692.03;;;17.70;100.00
10310;BME280;5200;43.236;27.986;2023-05-23T12:11:44;99702.75;;;17.77;100.00
10310;BME280;5200;43.236;27.986;2023-05-23T12:14:15;99692.31;;;17.97;100.00
10310;BME280;5200;43.236;27.986;2023-05-23T12:16:43;99689.97;;;18.15;100.00
10310;BME280;5200;43.236;27.986;2023-05-23T12:19:11;99692.94;;;18.34;100.00
10310;BME280;5200;43.236;27.986;2023-05-23T12:21:42;99674.06;;;18.64;100.00
10310;BME280;5200;43.236;27.986;2023-05-23T12:24:16;99687.97;;;19.07;100.00
10310;BME280;5200;43.236;27.986;2023-05-23T12:26:51;99683.50;;;19.21;100.00
10310;BME280;5200;43.236;27.986;2023-05-23T12:29:20;99689.28;;;19.31;100.00
10310;BME280;5200;43.236;27.986;2023-05-23T12:31:48;99680.28;;;19.46;100.00
10310;BME280;5200;43.236;27.986;2023-05-23T12:34:15;99675.81;;;19.93;100.00
10310;BME280;5200;43.236;27.986;2023-05-23T12:36:42;99674.09;;;20.32;100.00
10310;BME280;5200;43.236;27.986;2023-05-23T12:39:10;99673.00;;;20.59;100.00
10310;BME280;5200;43.236;27.986;2023-05-23T12:41:40;99655.97;;;20.47;100.00
10310;BME280;5200;43.236;27.986;2023-05-23T12:44:07;99671.28;;;19.93;100.00
10310;BME280;5200;43.236;27.986;2023-05-23T12:46:36;99670.84;;;19.63;100.00
10310;BME280;5200;43.236;27.986;2023-05-23T12:49:03;99673.50;;;19.50;100.00
10310;BME280;5200;43.236;27.986;2023-05-23T12:51:30;99669.78;;;19.37;100.00
10310;BME280;5200;43.236;27.986;2023-05-23T12:53:57;99649.44;;;19.10;100.00
10310;BME280;5200;43.236;27.986;2023-05-23T12:56:24;99643.69;;;19.06;100.00
10310;BME280;5200;43.236;27.986;2023-05-23T12:58:51;99669.16;;;19.22;100.00
10310;BME280;5200;43.236;27.986;2023-05-23T13:01:19;99673.22;;;19.11;100.00